createdAt,value
2023-04-26T00:00:27.205Z,4.52
2023-04-26T00:01:27.166Z,4.72
2023-04-26T00:02:27.272Z,4.59
2023-04-26T00:03:27.292Z,4.64
2023-04-26T00:04:27.416Z,4.54
2023-04-26T00:05:27.260Z,4.54
2023-04-26T00:06:27.245Z,4.59
2023-04-26T00:07:27.135Z,4.69
2023-04-26T00:08:27.133Z,4.61
2023-04-26T00:09:27.140Z,4.72
2023-04-26T00:10:27.110Z,4.83
2023-04-26T00:11:27.131Z,4.99
2023-04-26T00:12:27.135Z,4.99
2023-04-26T00:13:27.130Z,5.09
2023-04-26T00:14:27.102Z,4.98
2023-04-26T00:15:27.088Z,4.88
2023-04-26T00:16:27.107Z,4.88
2023-04-26T00:17:27.081Z,4.79
2023-04-26T00:18:27.879Z,4.59
2023-04-26T00:19:27.079Z,4.62
2023-04-26T00:20:27.075Z,4.61
2023-04-26T00:21:27.032Z,4.54
2023-04-26T00:22:27.074Z,4.26
2023-04-26T00:23:27.049Z,4.39
2023-04-26T00:24:27.926Z,4.18
2023-04-26T00:25:27.021Z,4.07
2023-04-26T00:26:27.066Z,4.12
2023-04-26T00:27:26.999Z,4.06
2023-04-26T00:28:27.030Z,4.03
2023-04-26T00:29:27.014Z,3.89
2023-04-26T00:30:27.018Z,3.98
2023-04-26T00:31:27.029Z,4.18
2023-04-26T00:32:27.062Z,4.06
2023-04-26T00:33:27.009Z,4.14
2023-04-26T00:34:26.966Z,3.90
2023-04-26T00:35:26.989Z,3.79
2023-04-26T00:36:26.961Z,3.71
2023-04-26T00:37:26.946Z,3.85
2023-04-26T00:38:26.949Z,3.85
2023-04-26T00:39:27.963Z,3.82
2023-04-26T00:40:26.981Z,3.89
2023-04-26T00:41:26.924Z,3.76
2023-04-26T00:42:26.960Z,3.71
2023-04-26T00:43:26.914Z,3.65
2023-04-26T00:44:26.956Z,3.68
2023-04-26T00:45:26.946Z,3.60
2023-04-26T00:46:26.931Z,3.46
2023-04-26T00:47:26.956Z,3.52
2023-04-26T00:48:26.908Z,3.43
2023-04-26T00:49:26.883Z,3.39
2023-04-26T00:50:26.869Z,3.20
2023-04-26T00:51:26.864Z,3.36
2023-04-26T00:52:26.885Z,3.34
2023-04-26T00:53:26.836Z,3.23
2023-04-26T00:54:26.864Z,3.21
2023-04-26T00:55:26.866Z,3.27
2023-04-26T00:56:26.833Z,3.39
2023-04-26T00:57:26.860Z,3.43
2023-04-26T00:58:26.825Z,3.47
2023-04-26T00:59:26.805Z,3.49
2023-04-26T01:00:26.800Z,3.54
2023-04-26T01:01:26.810Z,3.52
2023-04-26T01:02:26.893Z,3.60
2023-04-26T01:03:26.965Z,3.49
2023-04-26T01:04:26.826Z,3.47
2023-04-26T01:05:26.781Z,3.52
2023-04-26T01:06:26.798Z,3.72
2023-04-26T01:07:26.894Z,3.71
2023-04-26T01:08:26.747Z,3.78
2023-04-26T01:09:26.754Z,3.85
2023-04-26T01:10:26.747Z,3.75
2023-04-26T01:11:26.772Z,3.75
2023-04-26T01:12:26.751Z,3.90
2023-04-26T01:13:26.730Z,3.89
2023-04-26T01:14:26.733Z,3.88
2023-04-26T01:15:26.704Z,4.14
2023-04-26T01:16:26.824Z,4.21
2023-04-26T01:17:26.810Z,4.29
2023-04-26T01:18:26.742Z,4.36
2023-04-26T01:19:26.695Z,4.40
2023-04-26T01:20:26.694Z,4.36
2023-04-26T01:21:26.711Z,4.40
2023-04-26T01:22:26.675Z,4.43
2023-04-26T01:23:26.700Z,4.34
2023-04-26T01:24:26.654Z,4.12
2023-04-26T01:25:26.658Z,4.14
2023-04-26T01:26:26.653Z,4.28
2023-04-26T01:27:26.650Z,4.43
2023-04-26T01:28:26.611Z,4.34
2023-04-26T01:29:26.655Z,4.37
2023-04-26T01:30:26.632Z,4.39
2023-04-26T01:31:26.785Z,4.43
2023-04-26T01:32:26.644Z,4.39
2023-04-26T01:33:26.589Z,4.47
2023-04-26T01:34:26.607Z,4.37
2023-04-26T01:35:26.605Z,4.32
2023-04-26T01:36:26.573Z,4.43
2023-04-26T01:37:26.608Z,4.43
2023-04-26T01:38:26.580Z,4.44
2023-04-26T01:39:26.622Z,4.26
2023-04-26T01:40:26.551Z,4.39
2023-04-26T01:41:26.615Z,4.28
2023-04-26T01:42:26.588Z,4.18
2023-04-26T01:43:26.578Z,4.25
2023-04-26T01:44:26.528Z,4.12
2023-04-26T01:45:26.524Z,4.14
2023-04-26T01:46:26.577Z,4.16
2023-04-26T01:47:26.559Z,4.01
2023-04-26T01:48:26.500Z,3.88
2023-04-26T01:49:26.496Z,3.70
2023-04-26T01:50:26.495Z,3.57
2023-04-26T01:51:26.482Z,3.31
2023-04-26T01:52:26.519Z,3.36
2023-04-26T01:53:26.483Z,3.31
2023-04-26T01:54:26.483Z,3.52
2023-04-26T01:55:26.548Z,3.58
2023-04-26T01:56:26.447Z,3.49
2023-04-26T01:57:26.478Z,3.61
2023-04-26T01:58:26.474Z,3.61
2023-04-26T01:59:26.454Z,3.70
2023-04-26T02:00:26.426Z,3.70
2023-04-26T02:01:26.424Z,3.76
2023-04-26T02:02:26.430Z,3.78
2023-04-26T02:03:26.487Z,4.07
2023-04-26T02:04:26.421Z,3.85
2023-04-26T02:05:26.467Z,3.83
2023-04-26T02:06:26.411Z,3.71
2023-04-26T02:07:26.399Z,3.68
2023-04-26T02:08:27.430Z,3.70
2023-04-26T02:09:26.385Z,3.75
2023-04-26T02:10:26.384Z,3.80
2023-04-26T02:11:26.381Z,3.79
2023-04-26T02:12:26.364Z,3.65
2023-04-26T02:13:26.353Z,3.72
2023-04-26T02:14:26.389Z,3.75
2023-04-26T02:15:26.349Z,3.61
2023-04-26T02:16:26.358Z,3.47
2023-04-26T02:17:26.382Z,3.25
2023-04-26T02:18:26.313Z,3.34
2023-04-26T02:19:26.293Z,3.31
2023-04-26T02:20:26.369Z,3.46
2023-04-26T02:21:26.327Z,3.44
2023-04-26T02:22:26.278Z,3.57
2023-04-26T02:23:26.283Z,3.54
2023-04-26T02:24:26.308Z,3.49
2023-04-26T02:25:26.285Z,3.61
2023-04-26T02:26:26.276Z,3.61
2023-04-26T02:27:26.261Z,3.65
2023-04-26T02:28:26.315Z,3.67
2023-04-26T02:29:42.164Z,3.70
2023-04-26T02:30:28.249Z,3.70
2023-04-26T02:31:26.237Z,3.75
2023-04-26T02:32:26.245Z,3.57
2023-04-26T02:33:26.236Z,3.60
2023-04-26T02:34:26.223Z,3.64
2023-04-26T02:35:26.249Z,3.68
2023-04-26T02:36:26.219Z,3.70
2023-04-26T02:37:26.176Z,3.47
2023-04-26T02:38:26.224Z,3.60
2023-04-26T02:39:26.204Z,3.54
2023-04-26T02:40:26.211Z,3.58
2023-04-26T02:41:26.170Z,3.62
2023-04-26T02:42:26.192Z,3.58
2023-04-26T02:43:26.183Z,3.65
2023-04-26T02:44:26.170Z,3.62
2023-04-26T02:45:26.188Z,3.67
2023-04-26T02:46:26.167Z,3.60
2023-04-26T02:47:26.165Z,3.61
2023-04-26T02:48:26.140Z,3.71
2023-04-26T02:49:26.155Z,3.49
2023-04-26T02:50:26.103Z,3.61
2023-04-26T02:51:26.196Z,3.67
2023-04-26T02:52:26.176Z,3.64
2023-04-26T02:53:26.096Z,3.75
2023-04-26T02:54:26.118Z,3.88
2023-04-26T02:55:26.069Z,3.90
2023-04-26T02:56:26.082Z,3.97
2023-04-26T02:57:26.074Z,4.04
2023-04-26T02:58:26.049Z,4.26
2023-04-26T02:59:26.108Z,4.28
2023-04-26T03:00:26.077Z,4.34
2023-04-26T03:01:26.061Z,4.37
2023-04-26T03:02:26.227Z,4.33
2023-04-26T03:03:26.162Z,4.24
2023-04-26T03:04:26.047Z,4.32
2023-04-26T03:05:25.999Z,4.19
2023-04-26T03:06:26.028Z,3.89
2023-04-26T03:07:26.059Z,3.65
2023-04-26T03:08:26.049Z,3.65
2023-04-26T03:09:25.970Z,3.78
2023-04-26T03:10:25.972Z,4.00
2023-04-26T03:11:25.984Z,4.16
2023-04-26T03:12:25.972Z,4.14
2023-04-26T03:13:25.949Z,4.26
2023-04-26T03:14:25.953Z,4.21
2023-04-26T03:15:25.966Z,4.08
2023-04-26T03:16:26.005Z,3.94
2023-04-26T03:17:26.037Z,3.96
2023-04-26T03:18:25.916Z,4.01
2023-04-26T03:19:25.916Z,4.12
2023-04-26T03:20:25.961Z,4.01
2023-04-26T03:21:25.918Z,4.01
2023-04-26T03:22:25.910Z,4.04
2023-04-26T03:23:25.930Z,4.06
2023-04-26T03:24:25.935Z,4.28
2023-04-26T03:25:25.955Z,4.34
2023-04-26T03:26:25.876Z,4.50
2023-04-26T03:27:25.936Z,4.52
2023-04-26T03:28:25.863Z,4.40
2023-04-26T03:29:25.893Z,4.43
2023-04-26T03:30:25.854Z,4.55
2023-04-26T03:31:25.906Z,4.36
2023-04-26T03:32:25.873Z,4.12
2023-04-26T03:33:25.861Z,4.06
2023-04-26T03:34:25.843Z,4.07
2023-04-26T03:35:25.837Z,4.18
2023-04-26T03:36:25.823Z,4.10
2023-04-26T03:37:25.870Z,4.22
2023-04-26T03:38:25.818Z,3.97
2023-04-26T03:39:25.812Z,3.97
2023-04-26T03:40:25.830Z,4.03
2023-04-26T03:41:25.860Z,4.01
2023-04-26T03:42:25.782Z,4.04
2023-04-26T03:43:25.780Z,4.21
2023-04-26T03:44:25.810Z,4.16
2023-04-26T03:45:25.770Z,4.26
2023-04-26T03:46:25.832Z,4.24
2023-04-26T03:47:25.785Z,4.42
2023-04-26T03:48:26.760Z,4.22
2023-04-26T03:49:25.727Z,4.12
2023-04-26T03:50:25.839Z,4.10
2023-04-26T03:51:25.741Z,4.25
2023-04-26T03:52:25.714Z,4.19
2023-04-26T03:53:25.766Z,4.29
2023-04-26T03:54:25.732Z,4.26
2023-04-26T03:55:25.707Z,4.32
2023-04-26T03:56:25.727Z,4.33
2023-04-26T03:57:25.695Z,4.21
2023-04-26T03:58:25.703Z,4.26
2023-04-26T03:59:25.681Z,3.96
2023-04-26T04:00:25.708Z,4.03
2023-04-26T04:01:25.679Z,4.06
2023-04-26T04:02:25.777Z,4.16
2023-04-26T04:03:25.899Z,4.19
2023-04-26T04:04:25.863Z,4.19
2023-04-26T04:05:25.646Z,4.10
2023-04-26T04:06:25.647Z,4.18
2023-04-26T04:07:25.639Z,4.26
2023-04-26T04:08:25.667Z,4.28
2023-04-26T04:09:25.614Z,4.36
2023-04-26T04:10:25.614Z,4.32
2023-04-26T04:11:25.615Z,4.42
2023-04-26T04:12:25.577Z,4.34
2023-04-26T04:13:25.582Z,4.39
2023-04-26T04:14:25.565Z,4.19
2023-04-26T04:15:25.618Z,4.19
2023-04-26T04:16:25.608Z,4.21
2023-04-26T04:17:25.632Z,4.40
2023-04-26T04:18:25.624Z,4.39
2023-04-26T04:19:26.611Z,4.39
2023-04-26T04:20:25.610Z,4.29
2023-04-26T04:21:25.512Z,4.39
2023-04-26T04:22:25.529Z,4.42
2023-04-26T04:23:25.552Z,4.43
2023-04-26T04:24:25.523Z,4.44
2023-04-26T04:25:25.555Z,4.52
2023-04-26T04:26:25.509Z,4.55
2023-04-26T04:27:25.527Z,4.46
2023-04-26T04:28:25.532Z,4.47
2023-04-26T04:29:25.514Z,4.43
2023-04-26T04:30:25.486Z,4.46
2023-04-26T04:31:25.486Z,4.55
2023-04-26T04:32:25.505Z,4.61
2023-04-26T04:33:25.459Z,4.51
2023-04-26T04:34:31.541Z,4.61
2023-04-26T04:35:25.426Z,4.69
2023-04-26T04:36:25.431Z,4.69
2023-04-26T04:37:25.434Z,4.73
2023-04-26T04:38:25.457Z,4.69
2023-04-26T04:39:25.442Z,4.59
2023-04-26T04:40:25.413Z,4.55
2023-04-26T04:41:25.410Z,4.67
2023-04-26T04:42:25.422Z,4.64
2023-04-26T04:43:25.373Z,4.59
2023-04-26T04:44:25.371Z,4.73
2023-04-26T04:45:25.352Z,4.79
2023-04-26T04:46:25.398Z,4.88
2023-04-26T04:47:25.417Z,4.83
2023-04-26T04:48:25.349Z,4.84
2023-04-26T04:49:25.385Z,4.70
2023-04-26T04:50:25.373Z,4.67
2023-04-26T04:51:25.403Z,4.70
2023-04-26T04:52:25.325Z,4.77
2023-04-26T04:53:25.329Z,4.89
2023-04-26T04:54:25.328Z,4.83
2023-04-26T04:55:25.334Z,4.72
2023-04-26T04:56:25.316Z,4.69
2023-04-26T04:57:26.913Z,4.75
2023-04-26T04:58:25.347Z,4.76
2023-04-26T04:59:25.301Z,4.70
2023-04-26T05:00:25.301Z,4.76
2023-04-26T05:01:25.299Z,4.86
2023-04-26T05:02:25.428Z,4.80
2023-04-26T05:03:25.358Z,5.05
2023-04-26T05:04:25.454Z,5.07
2023-04-26T05:05:25.234Z,5.22
2023-04-26T05:06:25.280Z,5.19
2023-04-26T05:07:26.367Z,5.28
2023-04-26T05:08:25.843Z,5.19
2023-04-26T05:09:25.217Z,5.23
2023-04-26T05:10:25.900Z,5.19
2023-04-26T05:11:33.413Z,5.22
2023-04-26T05:12:25.243Z,5.12
2023-04-26T05:13:25.228Z,5.25
2023-04-26T05:14:25.220Z,5.27
2023-04-26T05:15:25.182Z,5.27
2023-04-26T05:16:25.221Z,5.45
2023-04-26T05:17:25.296Z,5.45
2023-04-26T05:18:25.150Z,5.35
2023-04-26T05:19:25.189Z,5.07
2023-04-26T05:20:25.149Z,4.95
2023-04-26T05:21:25.151Z,4.99
2023-04-26T05:22:25.151Z,5.19
2023-04-26T05:23:25.196Z,5.30
2023-04-26T05:24:25.210Z,4.96
2023-04-26T05:25:25.135Z,4.84
2023-04-26T05:26:25.130Z,4.54
2023-04-26T05:27:25.099Z,4.67
2023-04-26T05:28:25.141Z,4.72
2023-04-26T05:29:25.180Z,4.84
2023-04-26T05:30:25.135Z,4.88
2023-04-26T05:31:25.177Z,4.72
2023-04-26T05:32:25.942Z,4.88
2023-04-26T05:33:25.067Z,4.99
2023-04-26T05:34:25.111Z,4.92
2023-04-26T05:35:25.087Z,5.22
2023-04-26T05:36:25.699Z,5.34
2023-04-26T05:37:25.057Z,5.37
2023-04-26T05:38:25.057Z,5.32
2023-04-26T05:39:25.026Z,5.27
2023-04-26T05:40:25.050Z,5.40
2023-04-26T05:41:25.080Z,5.41
2023-04-26T05:42:25.069Z,5.38
2023-04-26T05:43:25.072Z,5.56
2023-04-26T05:44:25.026Z,5.57
2023-04-26T05:45:25.079Z,5.63
2023-04-26T05:46:26.036Z,5.81
2023-04-26T05:47:25.040Z,6.06
2023-04-26T05:48:24.984Z,5.96
2023-04-26T05:49:25.001Z,6.03
2023-04-26T05:50:24.974Z,6.16
2023-04-26T05:51:24.973Z,5.83
2023-04-26T05:52:25.030Z,6.03
2023-04-26T05:53:24.997Z,5.96
2023-04-26T05:54:24.967Z,5.89
2023-04-26T05:55:24.935Z,5.85
2023-04-26T05:56:24.923Z,5.89
2023-04-26T05:57:25.008Z,6.13
2023-04-26T05:58:24.920Z,6.11
2023-04-26T05:59:24.933Z,6.30
2023-04-26T06:00:24.947Z,6.21
2023-04-26T06:01:24.945Z,6.21
2023-04-26T06:02:25.146Z,6.22
2023-04-26T06:03:25.158Z,6.22
2023-04-26T06:04:25.052Z,6.18
2023-04-26T06:05:25.027Z,6.29
2023-04-26T06:06:24.864Z,6.35
2023-04-26T06:07:24.936Z,6.48
2023-04-26T06:08:24.904Z,6.54
2023-04-26T06:09:24.864Z,6.50
2023-04-26T06:10:24.989Z,6.30
2023-04-26T06:11:24.971Z,6.43
2023-04-26T06:12:24.829Z,6.41
2023-04-26T06:13:24.878Z,6.44
2023-04-26T06:14:30.341Z,6.11
2023-04-26T06:15:26.909Z,6.09
2023-04-26T06:16:24.942Z,6.01
2023-04-26T06:17:24.872Z,6.21
2023-04-26T06:18:24.811Z,6.11
2023-04-26T06:19:24.828Z,6.36
2023-04-26T06:20:24.900Z,6.48
2023-04-26T06:21:24.768Z,6.73
2023-04-26T06:22:24.803Z,6.97
2023-04-26T06:23:24.793Z,7.23
2023-04-26T06:24:24.785Z,7.29
2023-04-26T06:25:24.821Z,7.40
2023-04-26T06:26:24.767Z,7.58
2023-04-26T06:27:24.765Z,7.63
2023-04-26T06:28:24.750Z,7.84
2023-04-26T06:29:24.741Z,7.77
2023-04-26T06:30:24.809Z,7.92
2023-04-26T06:31:58.176Z,8.02
2023-04-26T06:32:58.178Z,7.74
2023-04-26T06:33:59.195Z,7.66
2023-04-26T06:34:58.131Z,7.49
2023-04-26T06:35:24.714Z,7.37
2023-04-26T06:36:24.699Z,7.62
2023-04-26T06:37:24.728Z,7.63
2023-04-26T06:38:24.695Z,7.74
2023-04-26T06:39:25.671Z,7.92
2023-04-26T06:40:24.689Z,7.84
2023-04-26T06:41:24.749Z,7.81
2023-04-26T06:42:24.710Z,7.72
2023-04-26T06:43:24.673Z,7.81
2023-04-26T06:44:24.675Z,7.96
2023-04-26T06:45:25.536Z,7.92
2023-04-26T06:46:24.736Z,7.82
2023-04-26T06:47:24.709Z,7.74
2023-04-26T06:48:24.657Z,7.84
2023-04-26T06:49:24.650Z,7.77
2023-04-26T06:50:24.604Z,7.84
2023-04-26T06:51:24.694Z,7.97
2023-04-26T06:52:24.643Z,8.22
2023-04-26T06:53:24.618Z,8.30
2023-04-26T06:54:24.621Z,8.25
2023-04-26T06:55:24.576Z,8.26
2023-04-26T06:56:24.839Z,8.44
2023-04-26T06:57:24.643Z,8.45
2023-04-26T06:58:24.580Z,8.26
2023-04-26T06:59:24.568Z,8.29
2023-04-26T07:00:24.548Z,8.63
2023-04-26T07:01:24.595Z,8.97
2023-04-26T07:02:24.791Z,9.09
2023-04-26T07:03:24.672Z,9.06
2023-04-26T07:04:24.828Z,8.94
2023-04-26T07:05:24.529Z,8.90
2023-04-26T07:06:24.536Z,9.13
2023-04-26T07:07:24.528Z,9.53
2023-04-26T07:08:24.480Z,9.75
2023-04-26T07:09:24.482Z,9.83
2023-04-26T07:10:24.529Z,9.34
2023-04-26T07:11:26.281Z,9.06
2023-04-26T07:12:25.496Z,9.23
2023-04-26T07:13:24.472Z,9.30
2023-04-26T07:14:24.502Z,9.58
2023-04-26T07:15:24.461Z,9.49
2023-04-26T07:16:24.563Z,9.61
2023-04-26T07:17:24.499Z,9.79
2023-04-26T07:18:24.456Z,9.85
2023-04-26T07:19:24.454Z,9.94
2023-04-26T07:20:24.454Z,10.12
2023-04-26T07:21:24.407Z,10.15
2023-04-26T07:22:24.418Z,9.79
2023-04-26T07:23:24.571Z,10.52
2023-04-26T07:24:24.417Z,10.51
2023-04-26T07:25:24.423Z,11.97
2023-04-26T07:26:24.411Z,13.54
2023-04-26T07:27:24.407Z,15.01
2023-04-26T07:28:24.416Z,15.64
2023-04-26T07:29:24.388Z,13.52
2023-04-26T07:30:24.374Z,11.59
2023-04-26T07:31:24.405Z,11.56
2023-04-26T07:32:24.441Z,12.12
2023-04-26T07:33:24.497Z,12.78
2023-04-26T07:34:24.387Z,13.03
2023-04-26T07:35:24.406Z,13.94
2023-04-26T07:36:25.146Z,14.10
2023-04-26T07:37:25.354Z,13.43
2023-04-26T07:38:24.347Z,12.13
2023-04-26T07:39:24.392Z,11.41
2023-04-26T07:40:24.304Z,10.94
2023-04-26T07:41:24.318Z,10.58
2023-04-26T07:42:24.301Z,10.22
2023-04-26T07:43:24.325Z,9.81
2023-04-26T07:44:24.319Z,9.85
2023-04-26T07:45:24.359Z,10.34
2023-04-26T07:46:24.419Z,10.62
2023-04-26T07:47:24.332Z,10.55
2023-04-26T07:48:24.272Z,10.18
2023-04-26T07:49:24.264Z,9.73
2023-04-26T07:50:24.259Z,9.57
2023-04-26T07:51:24.257Z,9.58
2023-04-26T07:52:24.257Z,9.94
2023-04-26T07:53:24.247Z,10.07
2023-04-26T07:54:24.250Z,9.79
2023-04-26T07:55:24.225Z,9.40
2023-04-26T07:56:24.247Z,9.06
2023-04-26T07:57:24.242Z,8.90
2023-04-26T07:58:24.212Z,8.84
2023-04-26T07:59:24.221Z,8.81
2023-04-26T08:00:24.364Z,8.96
2023-04-26T08:01:24.185Z,9.20
2023-04-26T08:02:36.737Z,9.18
2023-04-26T08:03:26.376Z,9.20
2023-04-26T08:04:24.303Z,10.36
2023-04-26T08:05:24.473Z,12.38
2023-04-26T08:06:24.400Z,12.57
2023-04-26T08:07:24.244Z,11.72
2023-04-26T08:08:24.167Z,11.90
2023-04-26T08:09:24.152Z,12.05
2023-04-26T08:10:24.175Z,12.12
2023-04-26T08:11:24.244Z,12.04
2023-04-26T08:12:25.139Z,12.26
2023-04-26T08:13:24.840Z,12.04
2023-04-26T08:14:24.098Z,11.78
2023-04-26T08:15:24.122Z,11.59
2023-04-26T08:16:24.156Z,11.70
2023-04-26T08:17:24.154Z,11.39
2023-04-26T08:18:24.099Z,11.34
2023-04-26T08:19:24.087Z,11.36
2023-04-26T08:20:24.132Z,11.28
2023-04-26T08:21:24.064Z,11.29
2023-04-26T08:22:24.095Z,10.81
2023-04-26T08:23:24.040Z,10.44
2023-04-26T08:24:24.199Z,10.24
2023-04-26T08:25:24.044Z,10.42
2023-04-26T08:26:24.102Z,10.30
2023-04-26T08:27:24.054Z,10.40
2023-04-26T08:28:24.037Z,10.58
2023-04-26T08:29:24.065Z,10.63
2023-04-26T08:30:24.037Z,10.53
2023-04-26T08:31:24.062Z,10.76
2023-04-26T08:32:23.974Z,10.78
2023-04-26T08:33:23.963Z,10.92
2023-04-26T08:34:24.164Z,11.25
2023-04-26T08:35:23.994Z,11.17
2023-04-26T08:36:23.976Z,10.76
2023-04-26T08:37:23.973Z,10.39
2023-04-26T08:38:23.986Z,10.42
2023-04-26T08:39:23.922Z,10.34
2023-04-26T08:40:23.934Z,10.43
2023-04-26T08:41:24.517Z,10.32
2023-04-26T08:42:23.918Z,10.24
2023-04-26T08:43:24.527Z,10.33
2023-04-26T08:44:23.931Z,10.60
2023-04-26T08:45:23.941Z,10.80
2023-04-26T08:46:23.928Z,10.94
2023-04-26T08:47:23.931Z,10.91
2023-04-26T08:48:23.893Z,10.81
2023-04-26T08:49:23.901Z,11.20
2023-04-26T08:50:24.272Z,11.19
2023-04-26T08:51:23.874Z,11.44
2023-04-26T08:52:23.868Z,11.34
2023-04-26T08:53:23.871Z,11.41
2023-04-26T08:54:23.909Z,11.75
2023-04-26T08:55:23.845Z,12.12
2023-04-26T08:56:23.820Z,12.04
2023-04-26T08:57:23.826Z,12.31
2023-04-26T08:58:23.810Z,12.04
2023-04-26T08:59:23.845Z,11.72
2023-04-26T09:00:23.852Z,11.34
2023-04-26T09:01:23.892Z,11.49
2023-04-26T09:02:24.017Z,11.28
2023-04-26T09:03:23.964Z,10.98
2023-04-26T09:04:23.919Z,10.91
2023-04-26T09:05:23.806Z,11.02
2023-04-26T09:06:23.840Z,10.95
2023-04-26T09:07:23.790Z,10.88
2023-04-26T09:08:23.774Z,10.94
2023-04-26T09:09:23.753Z,10.59
2023-04-26T09:10:23.888Z,10.40
2023-04-26T09:11:23.734Z,10.22
2023-04-26T09:12:23.801Z,10.18
2023-04-26T09:13:23.742Z,10.14
2023-04-26T09:14:23.721Z,10.36
2023-04-26T09:15:23.771Z,10.42
2023-04-26T09:16:23.802Z,9.94
2023-04-26T09:17:23.737Z,10.33
2023-04-26T09:18:23.773Z,10.44
2023-04-26T09:19:23.712Z,10.68
2023-04-26T09:20:23.715Z,11.11
2023-04-26T09:21:23.742Z,11.24
2023-04-26T09:22:23.750Z,11.07
2023-04-26T09:23:23.667Z,11.16
2023-04-26T09:24:23.638Z,10.99
2023-04-26T09:25:24.444Z,11.17
2023-04-26T09:26:25.497Z,11.36
2023-04-26T09:27:23.651Z,11.64
2023-04-26T09:28:23.664Z,12.12
2023-04-26T09:29:23.670Z,12.37
2023-04-26T09:30:23.649Z,12.20
2023-04-26T09:31:23.677Z,12.27
2023-04-26T09:32:24.504Z,12.20
2023-04-26T09:33:23.668Z,12.20
2023-04-26T09:34:23.622Z,11.99
2023-04-26T09:35:23.617Z,11.85
2023-04-26T09:36:24.603Z,11.93
2023-04-26T09:37:23.610Z,11.74
2023-04-26T09:38:23.547Z,11.49
2023-04-26T09:39:23.616Z,11.20
2023-04-26T09:40:23.568Z,11.07
2023-04-26T09:41:23.551Z,10.88
2023-04-26T09:42:23.573Z,10.80
2023-04-26T09:43:23.546Z,10.83
2023-04-26T09:44:24.498Z,10.92
2023-04-26T09:45:23.585Z,11.06
2023-04-26T09:46:23.538Z,11.17
2023-04-26T09:47:23.596Z,11.19
2023-04-26T09:48:23.523Z,11.28
2023-04-26T09:49:23.497Z,11.39
2023-04-26T09:50:23.496Z,11.43
2023-04-26T09:51:23.503Z,11.02
2023-04-26T09:52:23.489Z,10.94
2023-04-26T09:53:23.490Z,11.36
2023-04-26T09:54:23.495Z,11.61
2023-04-26T09:55:34.211Z,11.75
2023-04-26T09:56:25.461Z,11.83
2023-04-26T09:57:23.461Z,11.74
2023-04-26T09:58:23.424Z,11.94
2023-04-26T09:59:23.425Z,11.90
2023-04-26T10:00:23.429Z,11.94
2023-04-26T10:01:23.478Z,11.97
2023-04-26T10:02:23.561Z,11.41
2023-04-26T10:03:23.568Z,11.17
2023-04-26T10:04:23.478Z,11.21
2023-04-26T10:05:23.441Z,11.09
2023-04-26T10:06:23.365Z,10.91
2023-04-26T10:07:23.418Z,11.19
2023-04-26T10:08:23.357Z,11.35
2023-04-26T10:09:23.419Z,11.36
2023-04-26T10:10:23.381Z,11.28
2023-04-26T10:11:23.423Z,11.68
2023-04-26T10:12:23.350Z,11.70
2023-04-26T10:13:23.361Z,11.24
2023-04-26T10:14:23.320Z,11.20
2023-04-26T10:15:23.312Z,11.35
2023-04-26T10:16:23.439Z,11.43
2023-04-26T10:17:23.454Z,11.53
2023-04-26T10:18:23.369Z,11.44
2023-04-26T10:19:23.321Z,11.52
2023-04-26T10:20:23.306Z,11.65
2023-04-26T10:21:23.307Z,11.50
2023-04-26T10:22:23.312Z,11.46
2023-04-26T10:23:23.283Z,11.86
2023-04-26T10:24:23.290Z,12.23
2023-04-26T10:25:23.306Z,12.67
2023-04-26T10:26:23.328Z,12.92
2023-04-26T10:27:23.247Z,12.51
2023-04-26T10:28:23.291Z,12.78
2023-04-26T10:29:23.273Z,13.07
2023-04-26T10:30:23.319Z,13.20
2023-04-26T10:31:23.307Z,13.58
2023-04-26T10:32:23.246Z,13.63
2023-04-26T10:33:23.256Z,13.44
2023-04-26T10:34:23.225Z,13.00
2023-04-26T10:35:23.218Z,13.67
2023-04-26T10:36:23.214Z,14.24
2023-04-26T10:37:23.216Z,14.43
2023-04-26T10:38:23.227Z,14.57
2023-04-26T10:39:23.214Z,14.78
2023-04-26T10:40:23.288Z,15.11
2023-04-26T10:41:23.152Z,14.78
2023-04-26T10:42:24.252Z,14.04
2023-04-26T10:43:24.427Z,13.54
2023-04-26T10:44:23.175Z,13.36
2023-04-26T10:45:23.121Z,12.64
2023-04-26T10:46:23.231Z,12.37
2023-04-26T10:47:23.242Z,12.16
2023-04-26T10:48:23.133Z,11.97
2023-04-26T10:49:25.663Z,12.39
2023-04-26T10:50:23.099Z,12.56
2023-04-26T10:51:23.096Z,12.78
2023-04-26T10:52:23.243Z,13.20
2023-04-26T10:53:23.067Z,12.69
2023-04-26T10:54:23.190Z,12.49
2023-04-26T10:55:25.376Z,13.03
2023-04-26T10:56:24.137Z,13.52
2023-04-26T10:57:23.065Z,13.69
2023-04-26T10:58:23.049Z,13.76
2023-04-26T10:59:36.810Z,13.69
2023-04-26T11:00:25.057Z,13.52
2023-04-26T11:01:23.090Z,12.85
2023-04-26T11:02:23.057Z,13.00
2023-04-26T11:03:23.189Z,12.99
2023-04-26T11:04:23.257Z,12.77
2023-04-26T11:05:24.806Z,12.08
2023-04-26T11:06:22.996Z,12.12
2023-04-26T11:07:22.991Z,12.39
2023-04-26T11:08:22.995Z,12.56
2023-04-26T11:09:22.980Z,12.79
2023-04-26T11:10:23.059Z,13.20
2023-04-26T11:11:22.996Z,13.20
2023-04-26T11:12:22.985Z,13.09
2023-04-26T11:13:22.942Z,12.85
2023-04-26T11:14:22.962Z,12.99
2023-04-26T11:15:22.964Z,12.89
2023-04-26T11:16:22.960Z,12.88
2023-04-26T11:17:23.018Z,13.14
2023-04-26T11:18:22.925Z,13.11
2023-04-26T11:19:22.926Z,13.44
2023-04-26T11:20:22.949Z,13.52
2023-04-26T11:21:22.900Z,13.76
2023-04-26T11:22:22.914Z,13.89
2023-04-26T11:23:22.938Z,14.29
2023-04-26T11:24:22.883Z,14.35
2023-04-26T11:25:22.952Z,14.16
2023-04-26T11:26:23.006Z,14.28
2023-04-26T11:27:22.912Z,14.32
2023-04-26T11:28:22.878Z,14.04
2023-04-26T11:29:22.853Z,13.88
2023-04-26T11:30:22.836Z,13.43
2023-04-26T11:31:23.659Z,13.24
2023-04-26T11:32:22.824Z,13.17
2023-04-26T11:33:22.870Z,12.92
2023-04-26T11:34:22.830Z,12.79
2023-04-26T11:35:22.812Z,13.25
2023-04-26T11:36:22.821Z,13.58
2023-04-26T11:37:22.804Z,13.46
2023-04-26T11:38:22.817Z,13.38
2023-04-26T11:39:23.812Z,13.44
2023-04-26T11:40:22.786Z,13.38
2023-04-26T11:41:22.773Z,12.81
2023-04-26T11:42:22.796Z,12.62
2023-04-26T11:43:22.816Z,12.57
2023-04-26T11:44:22.759Z,12.16
2023-04-26T11:45:22.789Z,12.04
2023-04-26T11:46:22.824Z,12.49
2023-04-26T11:47:22.755Z,12.75
2023-04-26T11:48:22.877Z,12.87
2023-04-26T11:49:22.747Z,12.87
2023-04-26T11:50:22.733Z,12.54
2023-04-26T11:51:22.748Z,12.63
2023-04-26T11:52:22.699Z,12.96
2023-04-26T11:53:22.730Z,13.00
2023-04-26T11:54:22.691Z,13.40
2023-04-26T11:55:22.713Z,13.84
2023-04-26T11:56:22.708Z,14.17
2023-04-26T11:57:22.683Z,14.29
2023-04-26T11:58:22.689Z,14.84
2023-04-26T11:59:22.716Z,14.95
2023-04-26T12:00:22.680Z,15.28
2023-04-26T12:01:22.733Z,14.75
2023-04-26T12:02:22.781Z,14.68
2023-04-26T12:03:22.878Z,15.43
2023-04-26T12:04:22.796Z,16.25
2023-04-26T12:05:22.739Z,16.52
2023-04-26T12:06:22.637Z,16.85
2023-04-26T12:07:22.623Z,18.12
2023-04-26T12:08:22.631Z,18.55
2023-04-26T12:09:22.626Z,18.00
2023-04-26T12:10:22.681Z,17.11
2023-04-26T12:11:22.615Z,17.51
2023-04-26T12:12:22.588Z,18.80
2023-04-26T12:13:22.683Z,18.59
2023-04-26T12:14:23.555Z,18.28
2023-04-26T12:15:22.562Z,18.04
2023-04-26T12:16:26.084Z,17.10
2023-04-26T12:17:23.624Z,16.03
2023-04-26T12:18:22.569Z,15.93
2023-04-26T12:19:22.564Z,16.26
2023-04-26T12:20:55.939Z,16.23
2023-04-26T12:21:22.504Z,16.41
2023-04-26T12:22:22.502Z,15.51
2023-04-26T12:23:22.545Z,14.93
2023-04-26T12:24:22.536Z,15.39
2023-04-26T12:25:22.483Z,15.43
2023-04-26T12:26:22.503Z,15.46
2023-04-26T12:27:22.509Z,15.54
2023-04-26T12:28:22.477Z,15.01
2023-04-26T12:29:22.490Z,14.78
2023-04-26T12:30:22.493Z,15.03
2023-04-26T12:31:23.515Z,15.08
2023-04-26T12:32:22.877Z,15.56
2023-04-26T12:33:23.553Z,15.20
2023-04-26T12:34:22.479Z,15.30
2023-04-26T12:35:22.503Z,15.26
2023-04-26T12:36:22.415Z,15.41
2023-04-26T12:37:22.412Z,15.39
2023-04-26T12:38:22.472Z,15.09
2023-04-26T12:39:22.436Z,15.03
2023-04-26T12:40:55.821Z,15.30
2023-04-26T12:41:22.411Z,15.52
2023-04-26T12:42:23.027Z,15.45
2023-04-26T12:43:22.419Z,15.26
2023-04-26T12:44:22.793Z,14.99
2023-04-26T12:45:22.398Z,14.98
2023-04-26T12:46:22.431Z,15.27
2023-04-26T12:47:22.405Z,15.26
2023-04-26T12:48:22.350Z,15.08
2023-04-26T12:49:22.384Z,15.27
2023-04-26T12:50:23.372Z,15.24
2023-04-26T12:51:22.389Z,15.46
2023-04-26T12:52:22.358Z,15.23
2023-04-26T12:53:22.325Z,15.35
2023-04-26T12:54:22.357Z,15.09
2023-04-26T12:55:22.354Z,15.05
2023-04-26T12:56:22.544Z,14.91
2023-04-26T12:57:22.324Z,14.99
2023-04-26T12:58:22.346Z,15.33
2023-04-26T12:59:22.281Z,15.63
2023-04-26T13:00:22.280Z,15.52
2023-04-26T13:01:22.341Z,15.03
2023-04-26T13:02:22.482Z,15.99
2023-04-26T13:03:23.179Z,16.31
2023-04-26T13:04:22.391Z,17.23
2023-04-26T13:05:22.281Z,17.87
2023-04-26T13:06:22.246Z,16.89
2023-04-26T13:07:23.028Z,16.38